logo
Search for airport 
image banner adimage banner adimage banner ad
image banner ad

LOXN - Wr. Neustadt/West

Located in District Wiener Neustadt(Stadt), Austria

ICAO - LOXN, IATA -

Data provided by Airmate  

General information

Coordinates: N47°50'23" E16°13'13"
Elevation is 935 feet MSL.
 
Rated:
View ratings:
[VIEW]
View others Airports in Lower Austria

Operational data

Special qualification required
Current time UTC:
Current local time:
Weather
TAF: TAF LOXN 271115Z 2712/2721 18007KT 9999 FEW300
View NOTAMs / SUP AIP / TFR affecting this airport [VIEW]
Communications frequencies: [VIEW]

Runways:

RWY identifierQFULength (ft)Width (ft)SurfaceLDA (ft)
0400UNK
2200UNK
18L5315148UNK
36R5315148UNK

Airport contact information

Address: District Wiener Neustadt(Stadt) Austria

Satellite view of LOXN